sensor_id;sensor_type;location;lat;lon;timestamp;P1;durP1;ratioP1;P2;durP2;ratioP2
77736;SDS011;66903;59.926;30.404;2023-09-08T00:01:15;1.27;;;0.40;;
77736;SDS011;66903;59.926;30.404;2023-09-08T00:06:16;1.65;;;0.40;;
77736;SDS011;66903;59.926;30.404;2023-09-08T00:11:17;1.50;;;0.50;;
77736;SDS011;66903;59.926;30.404;2023-09-08T00:16:17;1.08;;;0.38;;
77736;SDS011;66903;59.926;30.404;2023-09-08T00:21:18;2.97;;;0.57;;
77736;SDS011;66903;59.926;30.404;2023-09-08T00:26:19;0.77;;;0.30;;
77736;SDS011;66903;59.926;30.404;2023-09-08T00:31:20;2.22;;;0.70;;
77736;SDS011;66903;59.926;30.404;2023-09-08T00:36:20;1.20;;;0.45;;
77736;SDS011;66903;59.926;30.404;2023-09-08T00:41:22;1.55;;;0.60;;
77736;SDS011;66903;59.926;30.404;2023-09-08T00:46:23;1.77;;;0.90;;
77736;SDS011;66903;59.926;30.404;2023-09-08T00:51:27;2.17;;;0.60;;
77736;SDS011;66903;59.926;30.404;2023-09-08T00:56:28;1.33;;;0.43;;
77736;SDS011;66903;59.926;30.404;2023-09-08T01:01:30;0.93;;;0.30;;
77736;SDS011;66903;59.926;30.404;2023-09-08T01:06:31;1.95;;;0.63;;
77736;SDS011;66903;59.926;30.404;2023-09-08T01:11:33;3.38;;;0.73;;
77736;SDS011;66903;59.926;30.404;2023-09-08T01:16:34;0.93;;;0.43;;
77736;SDS011;66903;59.926;30.404;2023-09-08T01:27:11;1.15;;;0.45;;
77736;SDS011;66903;59.926;30.404;2023-09-08T01:32:14;2.45;;;0.75;;
77736;SDS011;66903;59.926;30.404;2023-09-08T01:37:16;1.92;;;0.60;;
77736;SDS011;66903;59.926;30.404;2023-09-08T01:42:17;3.40;;;1.05;;
77736;SDS011;66903;59.926;30.404;2023-09-08T01:47:17;2.80;;;0.80;;
77736;SDS011;66903;59.926;30.404;2023-09-08T01:52:18;2.20;;;0.88;;
77736;SDS011;66903;59.926;30.404;2023-09-08T01:57:19;2.65;;;0.70;;
77736;SDS011;66903;59.926;30.404;2023-09-08T02:02:20;3.72;;;1.08;;
77736;SDS011;66903;59.926;30.404;2023-09-08T02:07:20;3.50;;;1.02;;
77736;SDS011;66903;59.926;30.404;2023-09-08T02:12:21;2.63;;;0.88;;
77736;SDS011;66903;59.926;30.404;2023-09-08T02:17:21;2.17;;;0.70;;
77736;SDS011;66903;59.926;30.404;2023-09-08T02:22:22;2.63;;;0.90;;
77736;SDS011;66903;59.926;30.404;2023-09-08T02:27:22;2.17;;;0.70;;
77736;SDS011;66903;59.926;30.404;2023-09-08T02:32:23;2.05;;;0.70;;
77736;SDS011;66903;59.926;30.404;2023-09-08T02:37:23;3.33;;;0.80;;
77736;SDS011;66903;59.926;30.404;2023-09-08T02:42:24;3.67;;;0.85;;
77736;SDS011;66903;59.926;30.404;2023-09-08T02:47:24;2.83;;;0.75;;
77736;SDS011;66903;59.926;30.404;2023-09-08T02:52:25;3.72;;;0.80;;
77736;SDS011;66903;59.926;30.404;2023-09-08T02:57:26;3.63;;;0.90;;
77736;SDS011;66903;59.926;30.404;2023-09-08T03:02:27;2.40;;;0.73;;
77736;SDS011;66903;59.926;30.404;2023-09-08T03:07:28;4.10;;;1.20;;
77736;SDS011;66903;59.926;30.404;2023-09-08T03:12:29;1.83;;;0.70;;
77736;SDS011;66903;59.926;30.404;2023-09-08T03:17:30;1.77;;;0.70;;
77736;SDS011;66903;59.926;30.404;2023-09-08T03:22:30;3.83;;;0.88;;
77736;SDS011;66903;59.926;30.404;2023-09-08T03:27:31;3.97;;;0.90;;
77736;SDS011;66903;59.926;30.404;2023-09-08T03:32:32;2.22;;;0.70;;
77736;SDS011;66903;59.926;30.404;2023-09-08T03:37:34;5.78;;;0.90;;
77736;SDS011;66903;59.926;30.404;2023-09-08T03:42:35;2.67;;;0.75;;
77736;SDS011;66903;59.926;30.404;2023-09-08T03:47:35;3.08;;;0.98;;
77736;SDS011;66903;59.926;30.404;2023-09-08T03:52:36;2.40;;;0.82;;
77736;SDS011;66903;59.926;30.404;2023-09-08T03:57:37;3.47;;;0.70;;
77736;SDS011;66903;59.926;30.404;2023-09-08T04:02:37;1.80;;;0.57;;
77736;SDS011;66903;59.926;30.404;2023-09-08T04:07:38;1.90;;;0.68;;
77736;SDS011;66903;59.926;30.404;2023-09-08T04:12:39;2.40;;;0.90;;
77736;SDS011;66903;59.926;30.404;2023-09-08T04:17:41;4.60;;;1.30;;
77736;SDS011;66903;59.926;30.404;2023-09-08T04:22:41;4.57;;;1.15;;
77736;SDS011;66903;59.926;30.404;2023-09-08T04:27:42;6.88;;;0.82;;
77736;SDS011;66903;59.926;30.404;2023-09-08T04:32:44;7.97;;;0.80;;
77736;SDS011;66903;59.926;30.404;2023-09-08T04:37:45;7.45;;;1.13;;
77736;SDS011;66903;59.926;30.404;2023-09-08T04:42:45;3.67;;;1.00;;
77736;SDS011;66903;59.926;30.404;2023-09-08T04:47:46;6.40;;;1.30;;
77736;SDS011;66903;59.926;30.404;2023-09-08T04:52:47;6.82;;;1.13;;
77736;SDS011;66903;59.926;30.404;2023-09-08T04:57:47;8.35;;;1.40;;
77736;SDS011;66903;59.926;30.404;2023-09-08T05:02:48;5.10;;;1.33;;
77736;SDS011;66903;59.926;30.404;2023-09-08T05:07:48;5.18;;;1.10;;
77736;SDS011;66903;59.926;30.404;2023-09-08T05:12:51;2.55;;;0.65;;
77736;SDS011;66903;59.926;30.404;2023-09-08T05:17:52;6.57;;;1.20;;
77736;SDS011;66903;59.926;30.404;2023-09-08T05:22:52;2.17;;;0.63;;
77736;SDS011;66903;59.926;30.404;2023-09-08T05:27:53;2.10;;;0.70;;
77736;SDS011;66903;59.926;30.404;2023-09-08T05:32:54;1.83;;;0.70;;
77736;SDS011;66903;59.926;30.404;2023-09-08T05:37:54;1.67;;;0.70;;
77736;SDS011;66903;59.926;30.404;2023-09-08T05:42:55;3.05;;;0.70;;
77736;SDS011;66903;59.926;30.404;2023-09-08T05:47:55;4.63;;;0.80;;
77736;SDS011;66903;59.926;30.404;2023-09-08T05:52:56;1.38;;;0.50;;
77736;SDS011;66903;59.926;30.404;2023-09-08T05:57:56;2.63;;;0.52;;
77736;SDS011;66903;59.926;30.404;2023-09-08T06:02:57;1.98;;;0.60;;
77736;SDS011;66903;59.926;30.404;2023-09-08T06:07:57;2.20;;;0.80;;
77736;SDS011;66903;59.926;30.404;2023-09-08T06:12:58;2.08;;;0.70;;
77736;SDS011;66903;59.926;30.404;2023-09-08T06:17:58;1.38;;;0.57;;
77736;SDS011;66903;59.926;30.404;2023-09-08T06:22:59;1.80;;;0.40;;
77736;SDS011;66903;59.926;30.404;2023-09-08T06:27:59;2.17;;;0.68;;
77736;SDS011;66903;59.926;30.404;2023-09-08T06:33:00;2.53;;;0.75;;
77736;SDS011;66903;59.926;30.404;2023-09-08T06:38:01;2.63;;;0.70;;
77736;SDS011;66903;59.926;30.404;2023-09-08T06:43:01;1.70;;;0.65;;
77736;SDS011;66903;59.926;30.404;2023-09-08T06:48:02;0.95;;;0.38;;
77736;SDS011;66903;59.926;30.404;2023-09-08T06:53:03;2.30;;;0.47;;
77736;SDS011;66903;59.926;30.404;2023-09-08T06:58:04;1.48;;;0.47;;
77736;SDS011;66903;59.926;30.404;2023-09-08T07:03:05;3.13;;;1.10;;
77736;SDS011;66903;59.926;30.404;2023-09-08T07:08:05;3.10;;;1.00;;
77736;SDS011;66903;59.926;30.404;2023-09-08T07:13:06;3.38;;;1.02;;
77736;SDS011;66903;59.926;30.404;2023-09-08T07:18:07;2.85;;;0.80;;
77736;SDS011;66903;59.926;30.404;2023-09-08T07:23:07;4.07;;;0.85;;
77736;SDS011;66903;59.926;30.404;2023-09-08T07:28:08;1.65;;;0.60;;
77736;SDS011;66903;59.926;30.404;2023-09-08T07:33:09;4.68;;;0.82;;
77736;SDS011;66903;59.926;30.404;2023-09-08T07:38:09;2.05;;;0.70;;
77736;SDS011;66903;59.926;30.404;2023-09-08T07:43:10;2.33;;;0.70;;
77736;SDS011;66903;59.926;30.404;2023-09-08T07:48:10;1.58;;;0.60;;
77736;SDS011;66903;59.926;30.404;2023-09-08T07:53:11;2.33;;;0.70;;
77736;SDS011;66903;59.926;30.404;2023-09-08T07:58:12;3.40;;;0.70;;
77736;SDS011;66903;59.926;30.404;2023-09-08T08:03:12;2.08;;;0.63;;
77736;SDS011;66903;59.926;30.404;2023-09-08T08:08:13;2.10;;;0.80;;
77736;SDS011;66903;59.926;30.404;2023-09-08T08:13:13;6.35;;;1.77;;
77736;SDS011;66903;59.926;30.404;2023-09-08T08:18:14;4.10;;;1.40;;
77736;SDS011;66903;59.926;30.404;2023-09-08T08:23:15;4.03;;;1.60;;
77736;SDS011;66903;59.926;30.404;2023-09-08T08:28:15;5.63;;;2.00;;
77736;SDS011;66903;59.926;30.404;2023-09-08T08:33:16;4.30;;;1.70;;
77736;SDS011;66903;59.926;30.404;2023-09-08T08:38:16;6.32;;;2.55;;
77736;SDS011;66903;59.926;30.404;2023-09-08T08:43:17;7.78;;;2.83;;
77736;SDS011;66903;59.926;30.404;2023-09-08T08:48:18;6.05;;;2.50;;
77736;SDS011;66903;59.926;30.404;2023-09-08T08:53:21;6.07;;;2.90;;
77736;SDS011;66903;59.926;30.404;2023-09-08T08:58:22;6.28;;;3.42;;
77736;SDS011;66903;59.926;30.404;2023-09-08T09:03:26;8.23;;;3.30;;
77736;SDS011;66903;59.926;30.404;2023-09-08T09:08:28;8.10;;;3.20;;
77736;SDS011;66903;59.926;30.404;2023-09-08T09:13:29;6.53;;;3.03;;
77736;SDS011;66903;59.926;30.404;2023-09-08T09:18:30;5.47;;;2.72;;
77736;SDS011;66903;59.926;30.404;2023-09-08T09:23:32;6.45;;;2.80;;
77736;SDS011;66903;59.926;30.404;2023-09-08T09:28:34;5.45;;;2.50;;
77736;SDS011;66903;59.926;30.404;2023-09-08T09:33:47;5.57;;;2.42;;
77736;SDS011;66903;59.926;30.404;2023-09-08T09:38:48;5.30;;;2.80;;
77736;SDS011;66903;59.926;30.404;2023-09-08T09:43:48;5.53;;;2.13;;
77736;SDS011;66903;59.926;30.404;2023-09-08T09:48:55;5.95;;;2.90;;
77736;SDS011;66903;59.926;30.404;2023-09-08T09:53:58;6.03;;;2.63;;
77736;SDS011;66903;59.926;30.404;2023-09-08T09:58:59;5.50;;;2.40;;
77736;SDS011;66903;59.926;30.404;2023-09-08T10:04:03;5.88;;;2.78;;
77736;SDS011;66903;59.926;30.404;2023-09-08T10:09:04;6.88;;;2.92;;
77736;SDS011;66903;59.926;30.404;2023-09-08T10:14:17;7.63;;;3.75;;
77736;SDS011;66903;59.926;30.404;2023-09-08T10:19:18;8.57;;;4.30;;
77736;SDS011;66903;59.926;30.404;2023-09-08T10:29:28;8.75;;;4.85;;
77736;SDS011;66903;59.926;30.404;2023-09-08T10:34:30;8.95;;;5.03;;
77736;SDS011;66903;59.926;30.404;2023-09-08T10:39:32;9.00;;;4.72;;
77736;SDS011;66903;59.926;30.404;2023-09-08T10:44:39;10.82;;;4.38;;
77736;SDS011;66903;59.926;30.404;2023-09-08T10:49:40;8.98;;;4.28;;
77736;SDS011;66903;59.926;30.404;2023-09-08T10:59:54;8.25;;;3.85;;
77736;SDS011;66903;59.926;30.404;2023-09-08T11:04:57;6.72;;;3.53;;
77736;SDS011;66903;59.926;30.404;2023-09-08T11:09:59;6.40;;;3.17;;
77736;SDS011;66903;59.926;30.404;2023-09-08T11:15:01;8.85;;;4.00;;
77736;SDS011;66903;59.926;30.404;2023-09-08T11:20:07;6.72;;;3.20;;
77736;SDS011;66903;59.926;30.404;2023-09-08T11:25:10;6.45;;;3.30;;
77736;SDS011;66903;59.926;30.404;2023-09-08T11:30:11;7.07;;;3.17;;
77736;SDS011;66903;59.926;30.404;2023-09-08T11:35:12;8.48;;;3.85;;
77736;SDS011;66903;59.926;30.404;2023-09-08T11:40:13;7.32;;;3.50;;
77736;SDS011;66903;59.926;30.404;2023-09-08T11:45:14;6.32;;;3.17;;
77736;SDS011;66903;59.926;30.404;2023-09-08T11:50:18;5.45;;;2.70;;
77736;SDS011;66903;59.926;30.404;2023-09-08T11:55:20;7.35;;;2.70;;
77736;SDS011;66903;59.926;30.404;2023-09-08T12:00:23;6.18;;;2.78;;
77736;SDS011;66903;59.926;30.404;2023-09-08T12:05:26;6.10;;;2.58;;
77736;SDS011;66903;59.926;30.404;2023-09-08T12:10:27;6.25;;;2.40;;
77736;SDS011;66903;59.926;30.404;2023-09-08T12:20:41;4.88;;;2.28;;
77736;SDS011;66903;59.926;30.404;2023-09-08T12:25:46;5.75;;;2.13;;
77736;SDS011;66903;59.926;30.404;2023-09-08T12:30:51;5.82;;;2.13;;
77736;SDS011;66903;59.926;30.404;2023-09-08T12:35:53;11.65;;;2.00;;
77736;SDS011;66903;59.926;30.404;2023-09-08T12:40:53;6.35;;;2.22;;
77736;SDS011;66903;59.926;30.404;2023-09-08T12:45:54;5.30;;;1.63;;
77736;SDS011;66903;59.926;30.404;2023-09-08T12:50:56;3.92;;;1.52;;
77736;SDS011;66903;59.926;30.404;2023-09-08T12:55:56;4.70;;;1.48;;
77736;SDS011;66903;59.926;30.404;2023-09-08T13:00:57;3.10;;;1.13;;
77736;SDS011;66903;59.926;30.404;2023-09-08T13:05:57;3.78;;;1.20;;
77736;SDS011;66903;59.926;30.404;2023-09-08T13:10:58;5.30;;;1.52;;
77736;SDS011;66903;59.926;30.404;2023-09-08T13:15:58;4.47;;;1.50;;
77736;SDS011;66903;59.926;30.404;2023-09-08T13:20:59;3.47;;;1.35;;
77736;SDS011;66903;59.926;30.404;2023-09-08T13:26:00;3.47;;;1.20;;
77736;SDS011;66903;59.926;30.404;2023-09-08T13:31:03;2.90;;;1.00;;
77736;SDS011;66903;59.926;30.404;2023-09-08T13:36:03;2.85;;;1.00;;
77736;SDS011;66903;59.926;30.404;2023-09-08T13:41:04;4.63;;;1.38;;
77736;SDS011;66903;59.926;30.404;2023-09-08T13:46:05;2.67;;;0.90;;
77736;SDS011;66903;59.926;30.404;2023-09-08T13:51:06;4.43;;;1.20;;
77736;SDS011;66903;59.926;30.404;2023-09-08T13:56:06;3.72;;;0.98;;
77736;SDS011;66903;59.926;30.404;2023-09-08T14:01:07;2.60;;;0.88;;
77736;SDS011;66903;59.926;30.404;2023-09-08T14:06:07;2.22;;;0.85;;
77736;SDS011;66903;59.926;30.404;2023-09-08T14:11:08;7.45;;;1.10;;
77736;SDS011;66903;59.926;30.404;2023-09-08T14:16:09;2.65;;;0.95;;
77736;SDS011;66903;59.926;30.404;2023-09-08T14:21:10;2.28;;;0.77;;
77736;SDS011;66903;59.926;30.404;2023-09-08T14:26:11;19.80;;;1.65;;
77736;SDS011;66903;59.926;30.404;2023-09-08T14:31:12;2.22;;;0.77;;
77736;SDS011;66903;59.926;30.404;2023-09-08T14:36:16;8.68;;;0.90;;
77736;SDS011;66903;59.926;30.404;2023-09-08T14:41:18;2.05;;;0.70;;
77736;SDS011;66903;59.926;30.404;2023-09-08T14:46:19;4.70;;;0.70;;
77736;SDS011;66903;59.926;30.404;2023-09-08T14:51:19;7.15;;;0.93;;
77736;SDS011;66903;59.926;30.404;2023-09-08T14:56:20;2.85;;;0.60;;
77736;SDS011;66903;59.926;30.404;2023-09-08T15:01:20;2.72;;;0.75;;
77736;SDS011;66903;59.926;30.404;2023-09-08T15:06:21;1.75;;;0.47;;
77736;SDS011;66903;59.926;30.404;2023-09-08T15:11:22;2.85;;;0.75;;
77736;SDS011;66903;59.926;30.404;2023-09-08T15:16:22;4.97;;;1.13;;
77736;SDS011;66903;59.926;30.404;2023-09-08T15:21:23;4.03;;;0.82;;
77736;SDS011;66903;59.926;30.404;2023-09-08T15:26:27;2.55;;;0.80;;
77736;SDS011;66903;59.926;30.404;2023-09-08T15:31:28;4.53;;;0.70;;
77736;SDS011;66903;59.926;30.404;2023-09-08T15:36:29;6.97;;;0.82;;
77736;SDS011;66903;59.926;30.404;2023-09-08T15:41:29;1.15;;;0.50;;
77736;SDS011;66903;59.926;30.404;2023-09-08T15:46:30;3.15;;;0.60;;
77736;SDS011;66903;59.926;30.404;2023-09-08T15:51:30;2.47;;;0.60;;
77736;SDS011;66903;59.926;30.404;2023-09-08T15:56:31;1.30;;;0.45;;
77736;SDS011;66903;59.926;30.404;2023-09-08T16:01:32;5.80;;;0.60;;
77736;SDS011;66903;59.926;30.404;2023-09-08T16:06:32;2.67;;;0.50;;
77736;SDS011;66903;59.926;30.404;2023-09-08T16:11:33;2.15;;;0.55;;
77736;SDS011;66903;59.926;30.404;2023-09-08T16:16:34;2.03;;;0.57;;
77736;SDS011;66903;59.926;30.404;2023-09-08T16:21:36;3.58;;;0.60;;
77736;SDS011;66903;59.926;30.404;2023-09-08T16:26:36;1.67;;;0.50;;
77736;SDS011;66903;59.926;30.404;2023-09-08T16:31:37;1.95;;;0.55;;
77736;SDS011;66903;59.926;30.404;2023-09-08T16:36:37;1.25;;;0.55;;
77736;SDS011;66903;59.926;30.404;2023-09-08T16:41:38;1.35;;;0.60;;
77736;SDS011;66903;59.926;30.404;2023-09-08T16:46:38;2.72;;;0.75;;
77736;SDS011;66903;59.926;30.404;2023-09-08T16:51:39;1.58;;;0.50;;
77736;SDS011;66903;59.926;30.404;2023-09-08T16:56:39;2.50;;;0.50;;
77736;SDS011;66903;59.926;30.404;2023-09-08T17:01:40;1.70;;;0.63;;
77736;SDS011;66903;59.926;30.404;2023-09-08T17:06:41;1.80;;;0.45;;
77736;SDS011;66903;59.926;30.404;2023-09-08T17:11:41;2.28;;;0.52;;
77736;SDS011;66903;59.926;30.404;2023-09-08T17:16:44;1.88;;;0.50;;
77736;SDS011;66903;59.926;30.404;2023-09-08T17:21:44;2.80;;;0.55;;
77736;SDS011;66903;59.926;30.404;2023-09-08T17:26:45;2.42;;;0.60;;
77736;SDS011;66903;59.926;30.404;2023-09-08T17:31:45;0.80;;;0.40;;
77736;SDS011;66903;59.926;30.404;2023-09-08T17:36:47;1.95;;;0.60;;
77736;SDS011;66903;59.926;30.404;2023-09-08T17:41:52;2.40;;;0.50;;
77736;SDS011;66903;59.926;30.404;2023-09-08T17:46:52;7.35;;;0.57;;
77736;SDS011;66903;59.926;30.404;2023-09-08T17:51:53;1.67;;;0.63;;
77736;SDS011;66903;59.926;30.404;2023-09-08T17:56:57;5.50;;;0.77;;
77736;SDS011;66903;59.926;30.404;2023-09-08T18:01:58;4.22;;;0.75;;
77736;SDS011;66903;59.926;30.404;2023-09-08T18:06:59;2.83;;;0.70;;
77736;SDS011;66903;59.926;30.404;2023-09-08T18:12:00;1.33;;;0.45;;
77736;SDS011;66903;59.926;30.404;2023-09-08T18:17:01;4.55;;;0.73;;
77736;SDS011;66903;59.926;30.404;2023-09-08T18:22:03;2.42;;;0.50;;
77736;SDS011;66903;59.926;30.404;2023-09-08T18:27:05;1.48;;;0.50;;
77736;SDS011;66903;59.926;30.404;2023-09-08T18:32:05;2.08;;;0.60;;
77736;SDS011;66903;59.926;30.404;2023-09-08T18:37:06;1.35;;;0.50;;
77736;SDS011;66903;59.926;30.404;2023-09-08T18:42:06;2.58;;;0.60;;
77736;SDS011;66903;59.926;30.404;2023-09-08T18:47:07;1.88;;;0.55;;
77736;SDS011;66903;59.926;30.404;2023-09-08T18:52:08;2.22;;;0.70;;
77736;SDS011;66903;59.926;30.404;2023-09-08T18:57:10;2.13;;;0.80;;
77736;SDS011;66903;59.926;30.404;2023-09-08T19:02:10;1.20;;;0.75;;
77736;SDS011;66903;59.926;30.404;2023-09-08T19:07:11;1.13;;;0.40;;
77736;SDS011;66903;59.926;30.404;2023-09-08T19:12:11;4.47;;;0.80;;
77736;SDS011;66903;59.926;30.404;2023-09-08T19:17:12;1.60;;;0.73;;
77736;SDS011;66903;59.926;30.404;2023-09-08T19:22:13;1.73;;;0.50;;
77736;SDS011;66903;59.926;30.404;2023-09-08T19:27:14;1.48;;;0.50;;
77736;SDS011;66903;59.926;30.404;2023-09-08T19:32:15;2.70;;;0.60;;
77736;SDS011;66903;59.926;30.404;2023-09-08T19:37:15;1.77;;;0.60;;
77736;SDS011;66903;59.926;30.404;2023-09-08T19:42:16;2.60;;;0.60;;
77736;SDS011;66903;59.926;30.404;2023-09-08T19:47:17;2.25;;;0.63;;
77736;SDS011;66903;59.926;30.404;2023-09-08T19:52:18;2.42;;;0.65;;
77736;SDS011;66903;59.926;30.404;2023-09-08T19:57:19;3.15;;;0.88;;
77736;SDS011;66903;59.926;30.404;2023-09-08T20:02:19;2.25;;;0.93;;
77736;SDS011;66903;59.926;30.404;2023-09-08T20:07:20;4.00;;;1.00;;
77736;SDS011;66903;59.926;30.404;2023-09-08T20:12:20;3.03;;;0.85;;
77736;SDS011;66903;59.926;30.404;2023-09-08T20:17:21;3.75;;;1.00;;
77736;SDS011;66903;59.926;30.404;2023-09-08T20:22:21;2.85;;;0.93;;
77736;SDS011;66903;59.926;30.404;2023-09-08T20:27:22;2.78;;;0.93;;
77736;SDS011;66903;59.926;30.404;2023-09-08T20:32:23;3.60;;;1.10;;
77736;SDS011;66903;59.926;30.404;2023-09-08T20:37:24;2.97;;;1.05;;
77736;SDS011;66903;59.926;30.404;2023-09-08T20:42:24;4.93;;;1.17;;
77736;SDS011;66903;59.926;30.404;2023-09-08T20:47:25;3.38;;;1.05;;
77736;SDS011;66903;59.926;30.404;2023-09-08T20:52:25;2.50;;;0.95;;
77736;SDS011;66903;59.926;30.404;2023-09-08T20:57:26;2.85;;;1.02;;
77736;SDS011;66903;59.926;30.404;2023-09-08T21:02:27;4.63;;;1.30;;
77736;SDS011;66903;59.926;30.404;2023-09-08T21:07:28;7.75;;;1.48;;
77736;SDS011;66903;59.926;30.404;2023-09-08T21:12:28;4.32;;;1.10;;
77736;SDS011;66903;59.926;30.404;2023-09-08T21:17:29;6.93;;;1.42;;
77736;SDS011;66903;59.926;30.404;2023-09-08T21:22:29;5.03;;;1.33;;
77736;SDS011;66903;59.926;30.404;2023-09-08T21:27:30;5.70;;;1.30;;
77736;SDS011;66903;59.926;30.404;2023-09-08T21:32:30;4.78;;;1.45;;
77736;SDS011;66903;59.926;30.404;2023-09-08T21:37:31;4.80;;;1.23;;
77736;SDS011;66903;59.926;30.404;2023-09-08T21:42:31;6.30;;;1.67;;
77736;SDS011;66903;59.926;30.404;2023-09-08T21:47:32;6.72;;;1.65;;
77736;SDS011;66903;59.926;30.404;2023-09-08T21:52:33;9.18;;;1.73;;
77736;SDS011;66903;59.926;30.404;2023-09-08T21:57:33;4.75;;;1.55;;
77736;SDS011;66903;59.926;30.404;2023-09-08T22:02:34;5.72;;;2.08;;
77736;SDS011;66903;59.926;30.404;2023-09-08T22:07:35;5.25;;;1.27;;
77736;SDS011;66903;59.926;30.404;2023-09-08T22:12:35;6.82;;;2.53;;
77736;SDS011;66903;59.926;30.404;2023-09-08T22:17:36;3.92;;;1.63;;
77736;SDS011;66903;59.926;30.404;2023-09-08T22:22:40;4.63;;;1.67;;
77736;SDS011;66903;59.926;30.404;2023-09-08T22:27:41;5.70;;;2.00;;
77736;SDS011;66903;59.926;30.404;2023-09-08T22:32:42;4.72;;;1.83;;
77736;SDS011;66903;59.926;30.404;2023-09-08T22:37:42;4.95;;;1.50;;
77736;SDS011;66903;59.926;30.404;2023-09-08T22:42:43;5.75;;;1.70;;
77736;SDS011;66903;59.926;30.404;2023-09-08T22:47:43;6.25;;;1.95;;
77736;SDS011;66903;59.926;30.404;2023-09-08T22:52:44;6.15;;;2.10;;
77736;SDS011;66903;59.926;30.404;2023-09-08T22:57:45;5.20;;;1.90;;
77736;SDS011;66903;59.926;30.404;2023-09-08T23:02:46;4.68;;;1.85;;
77736;SDS011;66903;59.926;30.404;2023-09-08T23:07:47;4.70;;;1.90;;
77736;SDS011;66903;59.926;30.404;2023-09-08T23:12:48;5.03;;;1.90;;
77736;SDS011;66903;59.926;30.404;2023-09-08T23:17:48;4.85;;;1.88;;
77736;SDS011;66903;59.926;30.404;2023-09-08T23:22:49;4.15;;;1.40;;
77736;SDS011;66903;59.926;30.404;2023-09-08T23:27:50;5.70;;;1.42;;
77736;SDS011;66903;59.926;30.404;2023-09-08T23:32:50;4.00;;;1.40;;
77736;SDS011;66903;59.926;30.404;2023-09-08T23:37:51;5.90;;;1.20;;
77736;SDS011;66903;59.926;30.404;2023-09-08T23:42:51;4.53;;;1.30;;
77736;SDS011;66903;59.926;30.404;2023-09-08T23:47:52;4.55;;;1.20;;
77736;SDS011;66903;59.926;30.404;2023-09-08T23:52:53;7.47;;;1.40;;
77736;SDS011;66903;59.926;30.404;2023-09-08T23:57:53;3.30;;;1.10;;
